createdAt,value
2023-04-04T00:00:19.842Z,77.86
2023-04-04T00:01:19.819Z,77.86
2023-04-04T00:02:19.835Z,77.76
2023-04-04T00:03:19.986Z,77.55
2023-04-04T00:04:19.897Z,77.66
2023-04-04T00:05:19.792Z,77.90
2023-04-04T00:06:19.787Z,77.76
2023-04-04T00:07:19.753Z,78.07
2023-04-04T00:08:19.738Z,78.18
2023-04-04T00:09:19.822Z,77.66
2023-04-04T00:10:19.724Z,77.76
2023-04-04T00:11:19.727Z,78.28
2023-04-04T00:12:19.707Z,78.39
2023-04-04T00:13:19.709Z,78.42
2023-04-04T00:14:19.708Z,79.01
2023-04-04T00:15:19.725Z,78.59
2023-04-04T00:16:19.786Z,78.59
2023-04-04T00:17:19.655Z,78.91
2023-04-04T00:18:19.648Z,78.91
2023-04-04T00:19:19.660Z,78.63
2023-04-04T00:20:19.615Z,78.59
2023-04-04T00:21:19.671Z,78.49
2023-04-04T00:22:20.626Z,78.59
2023-04-04T00:23:19.588Z,78.70
2023-04-04T00:24:19.566Z,78.70
2023-04-04T00:25:19.578Z,78.32
2023-04-04T00:26:19.626Z,79.05
2023-04-04T00:27:19.557Z,79.15
2023-04-04T00:28:19.527Z,78.74
2023-04-04T00:29:19.530Z,78.94
2023-04-04T00:30:19.531Z,78.32
2023-04-04T00:31:19.615Z,78.84
2023-04-04T00:32:19.673Z,79.15
2023-04-04T00:33:19.594Z,79.36
2023-04-04T00:34:19.488Z,79.40
2023-04-04T00:35:19.462Z,79.61
2023-04-04T00:36:19.462Z,79.78
2023-04-04T00:37:19.539Z,79.78
2023-04-04T00:38:19.451Z,79.78
2023-04-04T00:39:19.422Z,79.78
2023-04-04T00:40:19.410Z,79.78
2023-04-04T00:41:19.419Z,79.68
2023-04-04T00:42:19.445Z,79.61
2023-04-04T00:43:19.468Z,79.29
2023-04-04T00:44:19.408Z,79.50
2023-04-04T00:45:19.377Z,79.40
2023-04-04T00:46:19.365Z,79.50
2023-04-04T00:47:19.338Z,79.71
2023-04-04T00:48:19.347Z,79.40
2023-04-04T00:49:19.389Z,79.82
2023-04-04T00:50:19.317Z,79.71
2023-04-04T00:51:19.300Z,80.24
2023-04-04T00:52:19.348Z,80.13
2023-04-04T00:53:19.297Z,79.29
2023-04-04T00:54:19.281Z,79.61
2023-04-04T00:55:19.279Z,79.08
2023-04-04T00:56:19.265Z,79.19
2023-04-04T00:57:19.363Z,79.40
2023-04-04T00:58:19.242Z,79.61
2023-04-04T00:59:19.323Z,79.82
2023-04-04T01:00:19.210Z,79.85
2023-04-04T01:01:19.264Z,79.75
2023-04-04T01:02:19.190Z,79.54
2023-04-04T01:03:19.254Z,79.75
2023-04-04T01:04:19.241Z,79.54
2023-04-04T01:05:19.156Z,80.16
2023-04-04T01:06:19.146Z,80.27
2023-04-04T01:07:19.149Z,80.16
2023-04-04T01:08:19.200Z,80.06
2023-04-04T01:09:19.144Z,80.06
2023-04-04T01:10:19.106Z,80.06
2023-04-04T01:11:19.093Z,80.27
2023-04-04T01:12:19.098Z,79.85
2023-04-04T01:13:19.205Z,80.16
2023-04-04T01:14:19.065Z,80.16
2023-04-04T01:15:19.080Z,79.96
2023-04-04T01:16:19.128Z,79.85
2023-04-04T01:17:19.032Z,79.75
2023-04-04T01:18:19.110Z,80.06
2023-04-04T01:19:19.019Z,79.96
2023-04-04T01:20:19.044Z,79.96
2023-04-04T01:21:19.000Z,80.06
2023-04-04T01:22:19.016Z,79.85
2023-04-04T01:23:18.981Z,79.96
2023-04-04T01:24:19.021Z,80.20
2023-04-04T01:25:18.960Z,80.16
2023-04-04T01:26:18.957Z,79.99
2023-04-04T01:27:19.004Z,79.89
2023-04-04T01:28:18.930Z,80.16
2023-04-04T01:29:18.977Z,79.99
2023-04-04T01:30:18.959Z,79.99
2023-04-04T01:31:18.915Z,80.10
2023-04-04T01:32:18.889Z,80.31
2023-04-04T01:33:18.864Z,80.16
2023-04-04T01:34:18.936Z,80.20
2023-04-04T01:35:18.924Z,79.99
2023-04-04T01:36:18.899Z,80.10
2023-04-04T01:37:18.841Z,80.62
2023-04-04T01:38:18.824Z,80.31
2023-04-04T01:39:18.863Z,80.62
2023-04-04T01:40:18.795Z,80.41
2023-04-04T01:41:18.806Z,80.41
2023-04-04T01:42:18.782Z,80.41
2023-04-04T01:43:18.769Z,80.41
2023-04-04T01:44:18.837Z,80.31
2023-04-04T01:45:18.755Z,80.31
2023-04-04T01:46:18.924Z,80.41
2023-04-04T01:47:18.738Z,80.41
2023-04-04T01:48:18.730Z,80.31
2023-04-04T01:49:18.773Z,80.20
2023-04-04T01:50:18.723Z,80.20
2023-04-04T01:51:18.699Z,80.10
2023-04-04T01:52:18.799Z,79.09
2023-04-04T01:53:18.705Z,79.40
2023-04-04T01:54:18.720Z,80.03
2023-04-04T01:55:18.661Z,80.31
2023-04-04T01:56:18.703Z,80.24
2023-04-04T01:57:18.639Z,80.35
2023-04-04T01:58:18.622Z,80.45
2023-04-04T01:59:18.644Z,80.55
2023-04-04T02:00:18.611Z,81.07
2023-04-04T02:01:18.671Z,80.97
2023-04-04T02:02:18.589Z,81.18
2023-04-04T02:03:18.569Z,81.18
2023-04-04T02:04:18.599Z,80.87
2023-04-04T02:05:18.555Z,80.76
2023-04-04T02:06:18.620Z,80.76
2023-04-04T02:07:18.523Z,80.97
2023-04-04T02:08:18.560Z,80.90
2023-04-04T02:09:18.504Z,80.87
2023-04-04T02:10:18.522Z,80.76
2023-04-04T02:11:18.562Z,80.97
2023-04-04T02:12:18.497Z,80.76
2023-04-04T02:13:18.475Z,80.24
2023-04-04T02:14:18.459Z,80.13
2023-04-04T02:15:18.461Z,80.13
2023-04-04T02:16:18.565Z,80.07
2023-04-04T02:17:18.438Z,80.27
2023-04-04T02:18:18.428Z,80.80
2023-04-04T02:19:18.468Z,81.12
2023-04-04T02:20:18.421Z,81.12
2023-04-04T02:21:18.389Z,81.04
2023-04-04T02:22:18.397Z,81.36
2023-04-04T02:23:18.390Z,81.46
2023-04-04T02:24:18.460Z,81.78
2023-04-04T02:25:18.344Z,81.67
2023-04-04T02:26:18.405Z,81.78
2023-04-04T02:27:18.311Z,81.67
2023-04-04T02:28:18.319Z,81.99
2023-04-04T02:29:18.378Z,82.20
2023-04-04T02:30:18.331Z,82.09
2023-04-04T02:31:18.352Z,81.36
2023-04-04T02:32:18.303Z,81.46
2023-04-04T02:33:18.251Z,82.20
2023-04-04T02:34:18.359Z,81.78
2023-04-04T02:35:18.244Z,81.67
2023-04-04T02:36:18.254Z,81.88
2023-04-04T02:37:18.214Z,81.88
2023-04-04T02:38:18.321Z,81.88
2023-04-04T02:39:18.211Z,81.88
2023-04-04T02:40:18.213Z,81.67
2023-04-04T02:41:18.193Z,81.88
2023-04-04T02:42:18.199Z,81.78
2023-04-04T02:43:18.231Z,81.82
2023-04-04T02:44:18.160Z,81.71
2023-04-04T02:45:18.142Z,82.13
2023-04-04T02:46:21.736Z,82.13
2023-04-04T02:47:18.137Z,82.34
2023-04-04T02:48:18.153Z,82.09
2023-04-04T02:49:18.161Z,82.13
2023-04-04T02:50:18.099Z,82.34
2023-04-04T02:51:18.152Z,82.34
2023-04-04T02:52:18.074Z,82.23
2023-04-04T02:53:18.070Z,82.23
2023-04-04T02:54:18.078Z,82.23
2023-04-04T02:55:18.054Z,82.06
2023-04-04T02:56:18.107Z,82.03
2023-04-04T02:57:18.026Z,82.45
2023-04-04T02:58:18.017Z,82.65
2023-04-04T02:59:18.047Z,82.55
2023-04-04T03:00:18.031Z,82.55
2023-04-04T03:01:18.061Z,82.65
2023-04-04T03:02:18.068Z,82.55
2023-04-04T03:03:18.173Z,82.72
2023-04-04T03:04:17.979Z,82.65
2023-04-04T03:05:17.963Z,82.30
2023-04-04T03:06:18.023Z,82.55
2023-04-04T03:07:17.929Z,82.76
2023-04-04T03:08:17.925Z,82.65
2023-04-04T03:09:17.913Z,82.55
2023-04-04T03:10:17.891Z,82.72
2023-04-04T03:11:17.937Z,82.76
2023-04-04T03:12:17.896Z,82.51
2023-04-04T03:13:17.865Z,82.51
2023-04-04T03:14:17.836Z,82.65
2023-04-04T03:15:17.847Z,82.55
2023-04-04T03:16:17.967Z,82.34
2023-04-04T03:17:17.818Z,82.97
2023-04-04T03:18:17.819Z,82.55
2023-04-04T03:19:17.816Z,82.55
2023-04-04T03:20:17.784Z,82.86
2023-04-04T03:21:17.798Z,83.07
2023-04-04T03:22:17.839Z,83.07
2023-04-04T03:23:17.784Z,83.28
2023-04-04T03:24:17.737Z,83.28
2023-04-04T03:25:17.756Z,83.18
2023-04-04T03:26:17.765Z,82.65
2023-04-04T03:27:17.776Z,82.45
2023-04-04T03:28:17.746Z,82.76
2023-04-04T03:29:17.685Z,82.45
2023-04-04T03:30:17.707Z,82.55
2023-04-04T03:31:17.680Z,82.45
2023-04-04T03:32:17.765Z,82.23
2023-04-04T03:33:17.674Z,82.23
2023-04-04T03:34:17.651Z,82.34
2023-04-04T03:35:17.661Z,82.23
2023-04-04T03:36:17.623Z,82.13
2023-04-04T03:37:17.688Z,82.06
2023-04-04T03:38:17.633Z,82.76
2023-04-04T03:39:17.600Z,82.79
2023-04-04T03:40:17.595Z,82.69
2023-04-04T03:41:17.580Z,82.31
2023-04-04T03:42:17.633Z,82.62
2023-04-04T03:43:17.555Z,83.15
2023-04-04T03:44:17.564Z,83.15
2023-04-04T03:45:17.540Z,83.67
2023-04-04T03:46:17.617Z,83.98
2023-04-04T03:47:17.536Z,83.36
2023-04-04T03:48:17.513Z,84.20
2023-04-04T03:49:17.485Z,83.88
2023-04-04T03:50:17.510Z,83.84
2023-04-04T03:51:17.558Z,83.67
2023-04-04T03:52:17.445Z,83.95
2023-04-04T03:53:17.452Z,84.41
2023-04-04T03:54:17.428Z,84.41
2023-04-04T03:55:17.430Z,84.51
2023-04-04T03:56:17.494Z,84.51
2023-04-04T03:57:17.410Z,84.51
2023-04-04T03:58:17.391Z,84.30
2023-04-04T03:59:17.394Z,84.51
2023-04-04T04:00:17.390Z,84.05
2023-04-04T04:01:17.440Z,83.95
2023-04-04T04:02:17.407Z,83.84
2023-04-04T04:03:17.589Z,83.84
2023-04-04T04:04:17.382Z,83.74
2023-04-04T04:05:17.329Z,83.32
2023-04-04T04:06:17.341Z,83.22
2023-04-04T04:07:17.306Z,83.42
2023-04-04T04:08:17.366Z,83.11
2023-04-04T04:09:17.293Z,83.04
2023-04-04T04:10:17.283Z,82.90
2023-04-04T04:11:17.273Z,83.25
2023-04-04T04:12:17.278Z,83.32
2023-04-04T04:13:17.299Z,83.32
2023-04-04T04:14:17.247Z,83.32
2023-04-04T04:15:17.227Z,83.22
2023-04-04T04:16:17.279Z,83.53
2023-04-04T04:17:17.258Z,83.25
2023-04-04T04:18:17.221Z,83.57
2023-04-04T04:19:17.252Z,83.57
2023-04-04T04:20:17.174Z,83.64
2023-04-04T04:21:17.165Z,83.78
2023-04-04T04:22:17.216Z,83.57
2023-04-04T04:23:17.137Z,83.88
2023-04-04T04:24:17.143Z,83.88
2023-04-04T04:25:17.148Z,84.20
2023-04-04T04:26:17.115Z,83.78
2023-04-04T04:27:17.165Z,84.20
2023-04-04T04:28:17.093Z,83.78
2023-04-04T04:29:17.109Z,84.09
2023-04-04T04:30:17.079Z,83.98
2023-04-04T04:31:17.099Z,84.09
2023-04-04T04:32:17.122Z,83.88
2023-04-04T04:33:17.042Z,83.78
2023-04-04T04:34:17.048Z,83.67
2023-04-04T04:35:17.088Z,83.88
2023-04-04T04:36:17.066Z,83.78
2023-04-04T04:37:17.012Z,83.78
2023-04-04T04:38:17.009Z,83.67
2023-04-04T04:39:16.996Z,83.78
2023-04-04T04:40:17.032Z,83.57
2023-04-04T04:41:16.966Z,83.78
2023-04-04T04:42:16.951Z,83.57
2023-04-04T04:43:16.942Z,83.36
2023-04-04T04:44:16.993Z,83.57
2023-04-04T04:45:16.984Z,83.98
2023-04-04T04:46:16.920Z,83.78
2023-04-04T04:47:16.901Z,83.88
2023-04-04T04:48:16.898Z,83.88
2023-04-04T04:49:16.982Z,84.09
2023-04-04T04:50:16.978Z,83.98
2023-04-04T04:51:16.854Z,83.78
2023-04-04T04:52:16.895Z,83.78
2023-04-04T04:53:16.860Z,84.30
2023-04-04T04:54:16.908Z,83.98
2023-04-04T04:55:16.810Z,83.88
2023-04-04T04:56:16.871Z,83.98
2023-04-04T04:57:16.882Z,83.36
2023-04-04T04:58:16.788Z,83.98
2023-04-04T04:59:16.829Z,83.36
2023-04-04T05:00:16.783Z,83.36
2023-04-04T05:01:16.856Z,84.09
2023-04-04T05:02:16.870Z,83.67
2023-04-04T05:03:16.763Z,83.88
2023-04-04T05:04:16.756Z,83.88
2023-04-04T05:05:16.789Z,83.98
2023-04-04T05:06:16.715Z,83.98
2023-04-04T05:07:16.794Z,83.67
2023-04-04T05:08:16.702Z,83.88
2023-04-04T05:09:16.698Z,83.98
2023-04-04T05:10:16.671Z,84.20
2023-04-04T05:11:16.719Z,84.20
2023-04-04T05:12:16.655Z,84.30
2023-04-04T05:13:16.700Z,84.41
2023-04-04T05:14:16.626Z,84.72
2023-04-04T05:15:16.612Z,84.55
2023-04-04T05:16:16.724Z,84.55
2023-04-04T05:17:16.600Z,84.34
2023-04-04T05:18:16.572Z,84.51
2023-04-04T05:19:16.598Z,84.62
2023-04-04T05:20:16.651Z,84.41
2023-04-04T05:21:16.546Z,84.72
2023-04-04T05:22:16.597Z,84.62
2023-04-04T05:23:16.600Z,84.41
2023-04-04T05:24:16.547Z,84.72
2023-04-04T05:25:16.514Z,84.83
2023-04-04T05:26:16.521Z,84.51
2023-04-04T05:27:16.492Z,84.41
2023-04-04T05:28:16.576Z,84.30
2023-04-04T05:29:16.468Z,84.41
2023-04-04T05:30:16.468Z,84.41
2023-04-04T05:31:16.452Z,84.51
2023-04-04T05:32:16.432Z,84.37
2023-04-04T05:33:16.518Z,83.74
2023-04-04T05:34:16.472Z,83.95
2023-04-04T05:35:16.441Z,83.84
2023-04-04T05:36:16.441Z,83.64
2023-04-04T05:37:16.375Z,83.84
2023-04-04T05:38:16.450Z,84.22
2023-04-04T05:39:16.365Z,84.64
2023-04-04T05:40:16.363Z,84.64
2023-04-04T05:41:16.385Z,84.33
2023-04-04T05:42:16.327Z,84.01
2023-04-04T05:43:16.334Z,83.35
2023-04-04T05:44:16.379Z,83.56
2023-04-04T05:45:16.303Z,83.56
2023-04-04T05:46:16.349Z,83.83
2023-04-04T05:47:16.309Z,83.14
2023-04-04T05:48:16.280Z,83.10
2023-04-04T05:49:16.337Z,83.10
2023-04-04T05:50:16.268Z,82.68
2023-04-04T05:51:16.246Z,82.47
2023-04-04T05:52:16.265Z,82.47
2023-04-04T05:53:16.246Z,82.58
2023-04-04T05:54:16.288Z,82.26
2023-04-04T05:55:16.202Z,82.47
2023-04-04T05:56:16.207Z,82.23
2023-04-04T05:57:16.205Z,82.16
2023-04-04T05:58:16.194Z,82.26
2023-04-04T05:59:16.245Z,82.23
2023-04-04T06:00:16.168Z,82.47
2023-04-04T06:01:16.160Z,82.43
2023-04-04T06:02:16.183Z,82.23
2023-04-04T06:03:16.190Z,82.26
2023-04-04T06:04:16.201Z,82.23
2023-04-04T06:05:16.131Z,82.33
2023-04-04T06:06:16.183Z,82.43
2023-04-04T06:07:16.159Z,82.33
2023-04-04T06:08:16.076Z,82.54
2023-04-04T06:09:16.100Z,82.50
2023-04-04T06:10:16.088Z,82.40
2023-04-04T06:11:16.111Z,82.19
2023-04-04T06:12:16.043Z,82.09
2023-04-04T06:13:16.023Z,82.29
2023-04-04T06:14:16.025Z,81.98
2023-04-04T06:15:16.006Z,82.29
2023-04-04T06:16:16.058Z,82.19
2023-04-04T06:17:16.068Z,81.98
2023-04-04T06:18:15.974Z,82.29
2023-04-04T06:19:16.038Z,81.98
2023-04-04T06:20:15.972Z,82.09
2023-04-04T06:21:15.950Z,81.98
2023-04-04T06:22:15.998Z,82.19
2023-04-04T06:23:15.936Z,82.15
2023-04-04T06:24:15.920Z,81.84
2023-04-04T06:25:15.914Z,82.19
2023-04-04T06:26:15.894Z,81.73
2023-04-04T06:27:15.949Z,81.84
2023-04-04T06:28:15.876Z,81.95
2023-04-04T06:29:15.925Z,82.15
2023-04-04T06:30:15.855Z,82.01
2023-04-04T06:31:15.887Z,81.84
2023-04-04T06:32:15.933Z,81.73
2023-04-04T06:33:15.829Z,81.59
2023-04-04T06:34:15.812Z,81.63
2023-04-04T06:35:17.576Z,80.86
2023-04-04T06:36:15.839Z,80.44
2023-04-04T06:37:15.838Z,80.69
2023-04-04T06:38:15.790Z,81.00
2023-04-04T06:39:15.823Z,81.95
2023-04-04T06:40:15.782Z,81.63
2023-04-04T06:41:15.735Z,81.52
2023-04-04T06:42:15.781Z,81.63
2023-04-04T06:43:15.710Z,81.52
2023-04-04T06:44:15.701Z,82.05
2023-04-04T06:45:15.715Z,82.26
2023-04-04T06:46:15.726Z,82.15
2023-04-04T06:47:15.745Z,82.32
2023-04-04T06:48:15.667Z,81.38
2023-04-04T06:49:15.730Z,81.70
2023-04-04T06:50:15.664Z,82.01
2023-04-04T06:51:15.667Z,82.12
2023-04-04T06:52:15.633Z,81.45
2023-04-04T06:53:15.612Z,81.87
2023-04-04T06:54:15.607Z,80.82
2023-04-04T06:55:15.645Z,80.51
2023-04-04T06:56:15.682Z,80.09
2023-04-04T06:57:15.595Z,79.74
2023-04-04T06:58:15.568Z,79.26
2023-04-04T06:59:15.596Z,79.33
2023-04-04T07:00:15.558Z,79.43
2023-04-04T07:01:15.625Z,79.74
2023-04-04T07:02:15.561Z,79.74
2023-04-04T07:03:15.554Z,79.43
2023-04-04T07:04:15.512Z,79.43
2023-04-04T07:05:15.566Z,79.53
2023-04-04T07:06:15.492Z,79.95
2023-04-04T07:07:15.527Z,79.50
2023-04-04T07:08:15.470Z,79.60
2023-04-04T07:09:25.951Z,79.50
2023-04-04T07:10:16.468Z,79.08
2023-04-04T07:11:15.446Z,79.39
2023-04-04T07:12:15.509Z,79.36
2023-04-04T07:13:15.419Z,79.08
2023-04-04T07:14:15.412Z,79.15
2023-04-04T07:15:15.413Z,79.46
2023-04-04T07:16:15.380Z,79.77
2023-04-04T07:17:24.288Z,78.83
2023-04-04T07:18:16.362Z,78.42
2023-04-04T07:19:15.348Z,77.58
2023-04-04T07:20:15.335Z,78.59
2023-04-04T07:21:15.353Z,78.63
2023-04-04T07:22:15.394Z,78.91
2023-04-04T07:23:15.309Z,79.22
2023-04-04T07:24:15.301Z,78.80
2023-04-04T07:25:15.300Z,78.91
2023-04-04T07:26:15.279Z,78.91
2023-04-04T07:27:15.435Z,79.63
2023-04-04T07:28:15.349Z,78.17
2023-04-04T07:29:15.244Z,78.49
2023-04-04T07:30:15.239Z,77.55
2023-04-04T07:31:15.229Z,77.66
2023-04-04T07:32:15.203Z,78.38
2023-04-04T07:33:15.295Z,77.34
2023-04-04T07:34:15.190Z,77.45
2023-04-04T07:35:15.186Z,78.07
2023-04-04T07:36:15.227Z,79.05
2023-04-04T07:37:15.159Z,78.94
2023-04-04T07:38:15.219Z,78.80
2023-04-04T07:39:15.155Z,78.52
2023-04-04T07:40:15.127Z,78.17
2023-04-04T07:41:15.123Z,78.80
2023-04-04T07:42:15.171Z,78.49
2023-04-04T07:43:15.159Z,78.80
2023-04-04T07:44:15.106Z,78.69
2023-04-04T07:45:15.098Z,78.69
2023-04-04T07:46:15.114Z,79.32
2023-04-04T07:47:15.049Z,79.01
2023-04-04T07:48:15.127Z,78.97
2023-04-04T07:49:15.092Z,79.49
2023-04-04T07:50:15.026Z,79.01
2023-04-04T07:51:15.051Z,78.87
2023-04-04T07:52:15.009Z,78.69
2023-04-04T07:53:14.988Z,78.77
2023-04-04T07:54:15.039Z,78.14
2023-04-04T07:55:16.776Z,76.89
2023-04-04T07:56:14.960Z,76.78
2023-04-04T07:57:15.035Z,76.89
2023-04-04T07:58:14.938Z,77.17
2023-04-04T07:59:14.979Z,77.79
2023-04-04T08:00:14.960Z,78.00
2023-04-04T08:01:14.904Z,76.40
2023-04-04T08:02:14.988Z,76.09
2023-04-04T08:03:15.090Z,76.20
2023-04-04T08:04:14.969Z,75.67
2023-04-04T08:05:14.930Z,75.85
2023-04-04T08:06:14.859Z,75.64
2023-04-04T08:07:14.913Z,75.22
2023-04-04T08:08:14.843Z,74.88
2023-04-04T08:09:14.850Z,74.88
2023-04-04T08:10:14.889Z,74.77
2023-04-04T08:11:14.810Z,74.46
2023-04-04T08:12:14.800Z,74.25
2023-04-04T08:13:14.788Z,73.63
2023-04-04T08:14:14.790Z,73.94
2023-04-04T08:15:14.841Z,73.60
2023-04-04T08:16:14.825Z,73.18
2023-04-04T08:17:14.811Z,74.01
2023-04-04T08:18:15.021Z,74.39
2023-04-04T08:19:14.719Z,73.87
2023-04-04T08:20:14.716Z,73.35
2023-04-04T08:21:14.735Z,74.15
2023-04-04T08:22:14.721Z,72.59
2023-04-04T08:23:14.740Z,72.59
2023-04-04T08:24:14.676Z,71.97
2023-04-04T08:25:14.681Z,71.52
2023-04-04T08:26:14.656Z,71.52
2023-04-04T08:27:14.639Z,71.31
2023-04-04T08:28:14.772Z,70.48
2023-04-04T08:29:14.621Z,72.04
2023-04-04T08:30:14.648Z,72.94
2023-04-04T08:31:14.623Z,72.74
2023-04-04T08:32:14.601Z,70.97
2023-04-04T08:33:14.746Z,70.97
2023-04-04T08:34:14.583Z,71.49
2023-04-04T08:35:14.573Z,71.66
2023-04-04T08:36:14.607Z,71.25
2023-04-04T08:37:14.533Z,71.87
2023-04-04T08:38:14.585Z,71.35
2023-04-04T08:39:14.526Z,71.25
2023-04-04T08:40:14.569Z,71.14
2023-04-04T08:41:14.492Z,71.01
2023-04-04T08:42:14.487Z,69.97
2023-04-04T08:43:14.466Z,68.52
2023-04-04T08:44:14.516Z,68.62
2023-04-04T08:45:14.460Z,69.66
2023-04-04T08:46:14.530Z,69.35
2023-04-04T08:47:14.426Z,69.45
2023-04-04T08:48:14.450Z,69.24
2023-04-04T08:49:14.474Z,69.87
2023-04-04T08:50:14.413Z,69.84
2023-04-04T08:51:14.452Z,69.73
2023-04-04T08:52:14.380Z,68.49
2023-04-04T08:53:14.363Z,69.53
2023-04-04T08:54:14.433Z,69.42
2023-04-04T08:55:14.369Z,66.41
2023-04-04T08:56:14.374Z,65.28
2023-04-04T08:57:14.335Z,63.65
2023-04-04T08:58:14.410Z,64.03
2023-04-04T08:59:14.408Z,64.76
2023-04-04T09:00:14.599Z,64.55
2023-04-04T09:01:14.393Z,63.82
2023-04-04T09:02:14.328Z,63.93
2023-04-04T09:03:14.347Z,64.45
2023-04-04T09:04:14.289Z,64.34
2023-04-04T09:05:14.251Z,64.03
2023-04-04T09:06:14.240Z,64.14
2023-04-04T09:07:14.284Z,64.86
2023-04-04T09:08:14.282Z,64.34
2023-04-04T09:09:14.259Z,64.14
2023-04-04T09:10:14.274Z,64.03
2023-04-04T09:11:14.178Z,61.83
2023-04-04T09:12:14.197Z,61.41
2023-04-04T09:13:16.486Z,62.24
2023-04-04T09:14:14.163Z,61.31
2023-04-04T09:15:35.153Z,61.93
2023-04-04T09:16:14.149Z,61.62
2023-04-04T09:17:14.134Z,61.21
2023-04-04T09:18:14.224Z,61.93
2023-04-04T09:19:14.106Z,62.24
2023-04-04T09:20:14.203Z,62.76
2023-04-04T09:21:14.117Z,62.11
2023-04-04T09:22:14.074Z,60.97
2023-04-04T09:23:14.080Z,60.97
2023-04-04T09:24:14.052Z,61.07
2023-04-04T09:25:14.103Z,60.04
2023-04-04T09:26:14.041Z,59.39
2023-04-04T09:27:14.021Z,60.53
2023-04-04T09:28:14.018Z,61.87
2023-04-04T09:29:14.007Z,60.87
2023-04-04T09:30:14.067Z,61.69
2023-04-04T09:31:14.049Z,60.11
2023-04-04T09:32:14.095Z,59.29
2023-04-04T09:33:13.957Z,59.39
2023-04-04T09:34:13.960Z,60.01
2023-04-04T09:35:13.940Z,59.05
2023-04-04T09:36:14.051Z,57.53
2023-04-04T09:37:13.922Z,56.29
2023-04-04T09:38:13.929Z,56.91
2023-04-04T09:39:13.903Z,57.63
2023-04-04T09:40:13.909Z,56.91
2023-04-04T09:41:13.931Z,57.92
2023-04-04T09:42:13.900Z,57.81
2023-04-04T09:43:13.863Z,58.54
2023-04-04T09:44:13.903Z,58.12
2023-04-04T09:45:19.558Z,58.44
2023-04-04T09:46:14.848Z,58.12
2023-04-04T09:47:18.048Z,58.20
2023-04-04T09:48:14.838Z,59.64
2023-04-04T09:49:13.920Z,58.20
2023-04-04T09:50:13.778Z,57.86
2023-04-04T09:51:13.768Z,58.07
2023-04-04T09:52:13.771Z,58.89
2023-04-04T09:53:13.808Z,58.59
2023-04-04T09:54:26.182Z,59.31
2023-04-04T09:55:14.739Z,57.97
2023-04-04T09:56:13.738Z,58.07
2023-04-04T09:57:13.727Z,58.38
2023-04-04T09:58:13.710Z,58.07
2023-04-04T09:59:13.856Z,57.34
2023-04-04T10:00:13.670Z,59.34
2023-04-04T10:01:13.665Z,58.38
2023-04-04T10:02:13.657Z,58.07
2023-04-04T10:03:13.657Z,60.14
2023-04-04T10:04:13.766Z,59.62
2023-04-04T10:05:13.611Z,58.38
2023-04-04T10:06:13.627Z,58.15
2023-04-04T10:07:13.648Z,56.81
2023-04-04T10:08:13.675Z,58.56
2023-04-04T10:09:13.614Z,58.66
2023-04-04T10:10:13.583Z,58.45
2023-04-04T10:11:13.577Z,59.67
2023-04-04T10:12:13.595Z,60.80
2023-04-04T10:13:13.533Z,60.28
2023-04-04T10:14:13.628Z,58.71
2023-04-04T10:15:13.516Z,58.50
2023-04-04T10:16:13.558Z,58.30
2023-04-04T10:17:13.569Z,57.91
2023-04-04T10:18:13.490Z,58.20
2023-04-04T10:19:13.612Z,57.89
2023-04-04T10:20:13.470Z,55.72
2023-04-04T10:21:15.696Z,55.74
2023-04-04T10:22:13.508Z,56.85
2023-04-04T10:23:13.444Z,56.13
2023-04-04T10:24:13.493Z,57.47
2023-04-04T10:25:13.494Z,58.09
2023-04-04T10:26:13.465Z,58.09
2023-04-04T10:27:13.393Z,59.95
2023-04-04T10:28:13.386Z,58.27
2023-04-04T10:29:13.449Z,56.73
2023-04-04T10:30:13.369Z,56.21
2023-04-04T10:31:13.376Z,57.45
2023-04-04T10:32:13.434Z,57.65
2023-04-04T10:33:13.358Z,56.00
2023-04-04T10:34:13.388Z,55.80
2023-04-04T10:35:13.312Z,56.83
2023-04-04T10:36:13.381Z,58.06
2023-04-04T10:37:13.601Z,57.55
2023-04-04T10:38:13.279Z,56.08
2023-04-04T10:39:13.344Z,55.57
2023-04-04T10:40:13.345Z,58.04
2023-04-04T10:41:13.305Z,55.77
2023-04-04T10:42:13.249Z,55.77
2023-04-04T10:43:13.227Z,55.05
2023-04-04T10:44:13.318Z,53.61
2023-04-04T10:45:20.487Z,55.15
2023-04-04T10:46:14.249Z,55.77
2023-04-04T10:47:13.196Z,56.29
2023-04-04T10:48:13.235Z,55.33
2023-04-04T10:49:13.438Z,57.18
2023-04-04T10:50:13.164Z,57.81
2023-04-04T10:51:13.204Z,55.93
2023-04-04T10:52:13.160Z,55.21
2023-04-04T10:53:13.122Z,55.41
2023-04-04T10:54:13.112Z,54.07
2023-04-04T10:55:13.138Z,53.86
2023-04-04T10:56:13.198Z,53.66
2023-04-04T10:57:13.108Z,55.62
2023-04-04T10:58:13.121Z,55.00
2023-04-04T10:59:13.086Z,55.59
2023-04-04T11:00:13.057Z,52.91
2023-04-04T11:01:13.280Z,52.19
2023-04-04T11:02:13.099Z,51.70
2023-04-04T11:03:13.085Z,53.45
2023-04-04T11:04:13.077Z,55.41
2023-04-04T11:05:13.063Z,52.29
2023-04-04T11:06:13.142Z,52.50
2023-04-04T11:07:12.991Z,51.50
2023-04-04T11:08:12.959Z,50.36
2023-04-04T11:09:12.959Z,51.70
2023-04-04T11:10:12.992Z,50.26
2023-04-04T11:11:22.244Z,50.67
2023-04-04T11:12:13.987Z,50.88
2023-04-04T11:13:14.128Z,52.63
2023-04-04T11:14:12.894Z,53.63
2023-04-04T11:15:12.912Z,54.38
2023-04-04T11:16:12.916Z,53.86
2023-04-04T11:17:12.870Z,53.12
2023-04-04T11:18:27.004Z,53.86
2023-04-04T11:19:13.844Z,53.63
2023-04-04T11:20:12.845Z,52.22
2023-04-04T11:21:12.830Z,52.63
2023-04-04T11:22:12.821Z,53.84
2023-04-04T11:23:12.861Z,54.05
2023-04-04T11:24:12.800Z,53.33
2023-04-04T11:25:12.789Z,54.22
2023-04-04T11:26:12.766Z,53.41
2023-04-04T11:27:12.777Z,52.25
2023-04-04T11:28:12.855Z,52.76
2023-04-04T11:29:12.750Z,53.79
2023-04-04T11:30:12.724Z,51.84
2023-04-04T11:31:12.803Z,53.89
2023-04-04T11:32:12.725Z,53.35
2023-04-04T11:33:12.806Z,53.17
2023-04-04T11:34:12.697Z,53.79
2023-04-04T11:35:12.687Z,53.58
2023-04-04T11:36:12.774Z,53.66
2023-04-04T11:37:12.667Z,52.84
2023-04-04T11:38:12.670Z,51.01
2023-04-04T11:39:12.642Z,50.60
2023-04-04T11:40:12.705Z,52.86
2023-04-04T11:41:12.669Z,54.41
2023-04-04T11:42:12.670Z,52.33
2023-04-04T11:43:12.599Z,52.53
2023-04-04T11:44:12.604Z,53.77
2023-04-04T11:45:12.588Z,48.24
2023-04-04T11:46:12.648Z,48.85
2023-04-04T11:47:12.552Z,50.60
2023-04-04T11:48:12.637Z,50.29
2023-04-04T11:49:12.536Z,50.70
2023-04-04T11:50:12.520Z,51.84
2023-04-04T11:51:12.510Z,50.50
2023-04-04T11:52:12.572Z,50.29
2023-04-04T11:53:12.489Z,47.72
2023-04-04T11:54:12.469Z,50.09
2023-04-04T11:55:12.470Z,50.50
2023-04-04T11:56:12.459Z,50.50
2023-04-04T11:57:12.522Z,49.65
2023-04-04T11:58:13.386Z,49.65
2023-04-04T11:59:12.527Z,48.83
2023-04-04T12:00:12.437Z,48.32
2023-04-04T12:01:12.446Z,48.01
2023-04-04T12:02:12.490Z,47.92
2023-04-04T12:03:12.644Z,48.03
2023-04-04T12:04:12.424Z,47.82
2023-04-04T12:05:12.483Z,49.57
2023-04-04T12:06:12.454Z,48.72
2023-04-04T12:07:12.345Z,48.83
2023-04-04T12:08:12.362Z,49.44
2023-04-04T12:09:12.342Z,50.58
2023-04-04T12:10:13.316Z,51.81
2023-04-04T12:11:12.371Z,51.61
2023-04-04T12:12:12.360Z,52.40
2023-04-04T12:13:12.299Z,53.85
2023-04-04T12:14:12.282Z,51.89
2023-04-04T12:15:17.397Z,52.20
2023-04-04T12:16:13.306Z,51.79
2023-04-04T12:17:12.262Z,51.15
2023-04-04T12:18:12.305Z,51.87
2023-04-04T12:19:12.213Z,49.94
2023-04-04T12:20:12.247Z,51.28
2023-04-04T12:21:12.203Z,51.56
2023-04-04T12:22:12.201Z,52.69
2023-04-04T12:23:12.244Z,52.76
2023-04-04T12:24:12.198Z,53.79
2023-04-04T12:25:12.180Z,51.43
2023-04-04T12:26:12.242Z,51.84
2023-04-04T12:27:12.179Z,52.46
2023-04-04T12:28:12.112Z,52.56
2023-04-04T12:29:12.122Z,53.69
2023-04-04T12:30:12.099Z,53.08
2023-04-04T12:31:12.245Z,53.08
2023-04-04T12:32:12.093Z,50.51
2023-04-04T12:33:12.063Z,51.23
2023-04-04T12:34:12.122Z,51.33
2023-04-04T12:35:12.094Z,52.76
2023-04-04T12:36:12.127Z,50.43
2023-04-04T12:37:12.033Z,49.79
2023-04-04T12:38:12.002Z,49.69
2023-04-04T12:39:12.072Z,50.53
2023-04-04T12:40:12.061Z,50.43
2023-04-04T12:41:11.987Z,52.69
2023-04-04T12:42:11.975Z,51.95
2023-04-04T12:43:11.985Z,53.49
2023-04-04T12:44:11.966Z,50.40
2023-04-04T12:45:12.006Z,49.79
2023-04-04T12:46:11.988Z,50.40
2023-04-04T12:47:11.928Z,49.99
2023-04-04T12:48:11.912Z,50.40
2023-04-04T12:49:11.898Z,49.17
2023-04-04T12:50:11.945Z,49.79
2023-04-04T12:51:11.877Z,49.07
2023-04-04T12:52:11.867Z,47.96